createdAt,value
2023-04-15T00:01:55.038Z,100806.97
2023-04-15T00:04:24.428Z,100819.84
2023-04-15T00:06:54.872Z,100819.25
2023-04-15T00:09:24.351Z,100804.34
2023-04-15T00:11:51.510Z,100821.97
2023-04-15T00:14:21.194Z,100822.97
2023-04-15T00:16:50.202Z,100822.38
2023-04-15T00:19:17.067Z,100796.53
2023-04-15T00:21:43.680Z,100797.53
2023-04-15T00:24:12.840Z,100809.00
2023-04-15T00:26:39.818Z,100780.28
2023-04-15T00:29:10.394Z,100797.88
2023-04-15T00:31:39.518Z,100812.81
2023-04-15T00:34:06.402Z,100825.25
2023-04-15T00:36:34.170Z,100816.06
2023-04-15T00:39:01.631Z,100819.50
2023-04-15T00:41:30.749Z,100822.34
2023-04-15T00:43:57.654Z,100779.91
2023-04-15T00:46:27.368Z,100821.03
2023-04-15T00:48:55.100Z,100816.84
2023-04-15T00:51:21.748Z,100810.38
2023-04-15T00:53:48.913Z,100831.91
2023-04-15T00:56:16.150Z,100831.19
2023-04-15T00:58:43.040Z,100818.13
2023-04-15T01:01:10.288Z,100823.44
2023-04-15T01:03:37.266Z,100809.34
2023-04-15T01:06:04.546Z,100816.34
2023-04-15T01:08:31.965Z,100817.19
2023-04-15T01:11:03.487Z,100820.09
2023-04-15T01:13:31.375Z,100822.03
2023-04-15T01:15:58.159Z,100833.03
2023-04-15T01:18:25.464Z,100809.81
2023-04-15T01:20:52.174Z,100825.84
2023-04-15T01:23:22.186Z,100805.44
2023-04-15T01:25:53.683Z,100827.34
2023-04-15T01:28:23.021Z,100820.75
2023-04-15T01:30:51.882Z,100832.59
2023-04-15T01:33:18.638Z,100808.47
2023-04-15T01:35:45.326Z,100828.41
2023-04-15T01:38:12.483Z,100810.44
2023-04-15T01:40:41.750Z,100828.06
2023-04-15T01:43:10.651Z,100830.19
2023-04-15T01:45:37.598Z,100831.56
2023-04-15T01:48:04.298Z,100818.13
2023-04-15T01:50:31.622Z,100818.91
2023-04-15T01:52:58.477Z,100806.09
2023-04-15T01:55:27.837Z,100813.25
2023-04-15T01:57:54.497Z,100793.97
2023-04-15T02:00:23.393Z,100821.78
2023-04-15T02:02:50.132Z,100833.50
2023-04-15T02:05:16.875Z,100835.34
2023-04-15T02:07:43.790Z,100692.63
2023-04-15T02:10:13.706Z,100817.78
2023-04-15T02:12:45.331Z,100840.56
2023-04-15T02:15:12.005Z,100835.88
2023-04-15T02:17:38.794Z,100834.19
2023-04-15T02:20:06.263Z,100835.41
2023-04-15T02:22:35.394Z,100839.38
2023-04-15T02:25:02.093Z,100834.72
2023-04-15T02:27:29.284Z,100840.25
2023-04-15T02:29:56.031Z,100846.16
2023-04-15T02:32:24.496Z,100838.91
2023-04-15T02:34:51.413Z,100838.16
2023-04-15T02:37:19.360Z,100852.44
2023-04-15T02:39:46.903Z,100844.72
2023-04-15T02:42:13.856Z,100844.34
2023-04-15T02:44:40.646Z,100833.13
2023-04-15T02:47:07.535Z,100863.19
2023-04-15T02:49:34.313Z,100862.56
2023-04-15T02:52:03.485Z,100864.31
2023-04-15T02:54:30.556Z,100860.88
2023-04-15T02:56:59.424Z,100867.50
2023-04-15T02:59:28.304Z,100867.50
2023-04-15T03:02:01.179Z,100848.91
2023-04-15T03:04:31.000Z,100867.88
2023-04-15T03:06:57.723Z,100851.38
2023-04-15T03:09:27.156Z,100867.16
2023-04-15T03:11:57.070Z,100664.28
2023-04-15T03:14:26.069Z,100838.06
2023-04-15T03:16:55.339Z,100850.03
2023-04-15T03:19:22.237Z,100856.78
2023-04-15T03:21:52.177Z,100833.88
2023-04-15T03:24:18.949Z,100850.28
2023-04-15T03:26:45.643Z,100832.75
2023-04-15T03:29:14.413Z,100876.25
2023-04-15T03:31:41.854Z,100872.69
2023-04-15T03:34:08.592Z,100887.06
2023-04-15T03:36:35.396Z,100883.75
2023-04-15T03:39:04.396Z,100887.44
2023-04-15T03:41:31.255Z,100888.44
2023-04-15T03:43:57.902Z,100880.28
2023-04-15T03:46:24.752Z,100886.44
2023-04-15T03:48:51.669Z,100900.72
2023-04-15T03:51:18.343Z,100903.53
2023-04-15T03:53:45.036Z,100907.25
2023-04-15T03:56:11.693Z,100886.97
2023-04-15T03:58:38.413Z,100915.75
2023-04-15T04:01:05.407Z,100924.84
2023-04-15T04:03:32.388Z,100914.94
2023-04-15T04:05:59.513Z,100907.78
2023-04-15T04:08:27.807Z,100916.31
2023-04-15T04:10:54.485Z,100937.03
2023-04-15T04:13:21.315Z,100937.03
2023-04-15T04:15:48.150Z,100927.97
2023-04-15T04:18:14.885Z,100944.66
2023-04-15T04:20:42.264Z,100933.63
2023-04-15T04:23:10.842Z,100935.28
2023-04-15T04:25:37.818Z,100926.25
2023-04-15T04:28:04.766Z,100957.94
2023-04-15T04:30:31.782Z,100966.53
2023-04-15T04:32:58.800Z,100964.91
2023-04-15T04:35:28.252Z,100976.34
2023-04-15T04:37:57.577Z,100975.84
2023-04-15T04:40:24.316Z,100952.41
2023-04-15T04:42:53.283Z,100983.00
2023-04-15T04:45:20.560Z,100985.19
2023-04-15T04:47:48.003Z,100992.41
2023-04-15T04:50:17.311Z,100989.06
2023-04-15T04:52:44.234Z,100987.25
2023-04-15T04:55:13.418Z,100999.34
2023-04-15T04:57:40.104Z,100996.75
2023-04-15T05:00:14.926Z,101003.78
2023-04-15T05:02:46.622Z,101007.25
2023-04-15T05:05:13.674Z,100990.59
2023-04-15T05:07:42.714Z,101001.47
2023-04-15T05:10:13.011Z,101021.34
2023-04-15T05:12:40.010Z,101015.91
2023-04-15T05:15:07.689Z,101010.03
2023-04-15T05:17:35.437Z,101021.00
2023-04-15T05:20:05.105Z,101022.09
2023-04-15T05:22:32.105Z,101023.25
2023-04-15T05:25:01.370Z,101031.22
2023-04-15T05:27:28.090Z,101031.53
2023-04-15T05:29:57.295Z,101015.59
2023-04-15T05:32:24.298Z,101039.72
2023-04-15T05:34:51.498Z,101044.13
2023-04-15T05:37:20.898Z,101055.50
2023-04-15T05:39:48.415Z,101058.84
2023-04-15T05:42:15.629Z,101067.72
2023-04-15T05:44:42.786Z,101056.13
2023-04-15T05:47:10.383Z,101065.22
2023-04-15T05:49:40.047Z,101069.41
2023-04-15T05:52:06.676Z,101076.22
2023-04-15T05:54:34.673Z,101060.53
2023-04-15T05:57:02.235Z,101076.72
2023-04-15T05:59:29.050Z,101091.03
2023-04-15T06:01:55.779Z,101080.03
2023-04-15T06:04:25.036Z,101067.19
2023-04-15T06:06:52.263Z,101070.19
2023-04-15T06:09:23.066Z,101090.38
2023-04-15T06:11:50.224Z,101096.91
2023-04-15T06:14:17.086Z,101101.44
2023-04-15T06:16:44.092Z,101056.69
2023-04-15T06:19:11.046Z,101106.63
2023-04-15T06:21:38.023Z,101103.81
2023-04-15T06:24:05.175Z,101106.28
2023-04-15T06:26:36.885Z,101096.81
2023-04-15T06:29:03.974Z,101085.38
2023-04-15T06:31:33.279Z,101096.88
2023-04-15T06:34:00.185Z,101126.22
2023-04-15T06:36:28.018Z,101104.56
2023-04-15T06:38:54.858Z,101127.66
2023-04-15T06:41:21.720Z,101131.16
2023-04-15T06:43:53.016Z,101102.31
2023-04-15T06:46:20.287Z,101136.28
2023-04-15T06:48:47.680Z,101133.78
2023-04-15T06:51:14.531Z,101129.44
2023-04-15T06:53:42.681Z,101138.78
2023-04-15T06:56:11.959Z,101163.50
2023-04-15T06:58:38.885Z,101161.72
2023-04-15T07:01:08.081Z,101158.66
2023-04-15T07:03:35.356Z,101170.25
2023-04-15T07:06:06.629Z,101173.66
2023-04-15T07:08:33.925Z,101161.41
2023-04-15T07:11:02.516Z,101155.78
2023-04-15T07:13:34.226Z,101162.44
2023-04-15T07:16:03.126Z,101183.31
2023-04-15T07:18:30.386Z,101188.88
2023-04-15T07:20:57.587Z,101166.25
2023-04-15T07:23:26.610Z,101191.25
2023-04-15T07:25:53.707Z,101185.97
2023-04-15T07:28:23.205Z,101193.28
2023-04-15T07:30:50.192Z,101177.59
2023-04-15T07:33:19.654Z,101207.13
2023-04-15T07:35:47.033Z,101185.72
2023-04-15T07:38:13.847Z,101205.63
2023-04-15T07:40:41.135Z,101210.78
2023-04-15T07:43:09.028Z,101224.53
2023-04-15T07:45:35.953Z,101210.44
2023-04-15T07:48:03.119Z,101220.91
2023-04-15T07:50:29.877Z,101231.88
2023-04-15T07:52:57.405Z,101235.50
2023-04-15T07:55:24.553Z,101235.19
2023-04-15T07:57:51.962Z,101218.53
2023-04-15T08:00:18.740Z,101248.94
2023-04-15T08:02:48.626Z,101239.16
2023-04-15T08:05:16.035Z,101078.13
2023-04-15T08:07:42.806Z,101253.19
2023-04-15T08:10:10.410Z,101265.91
2023-04-15T08:12:41.230Z,101250.53
2023-04-15T08:15:09.266Z,101244.78
2023-04-15T08:17:36.075Z,101228.31
2023-04-15T08:20:06.018Z,101272.00
2023-04-15T08:22:32.730Z,101266.41
2023-04-15T08:24:59.836Z,101268.44
2023-04-15T08:27:26.578Z,101116.66
2023-04-15T08:29:56.115Z,101260.41
2023-04-15T08:32:22.893Z,101255.09
2023-04-15T08:34:50.036Z,101284.44
2023-04-15T08:37:17.235Z,101266.06
2023-04-15T08:39:45.414Z,101267.28
2023-04-15T08:42:18.594Z,101306.16
2023-04-15T08:44:46.837Z,101285.50
2023-04-15T08:47:17.720Z,101313.50
2023-04-15T08:49:44.586Z,101294.88
2023-04-15T08:52:12.383Z,101309.16
2023-04-15T08:54:39.088Z,101309.06
2023-04-15T08:57:07.096Z,101324.72
2023-04-15T08:59:36.566Z,101318.81
2023-04-15T09:02:08.688Z,101329.66
2023-04-15T09:04:35.594Z,101350.47
2023-04-15T09:07:02.222Z,101333.16
2023-04-15T09:09:29.468Z,101355.81
2023-04-15T09:11:58.763Z,101334.63
2023-04-15T09:14:25.687Z,101341.50
2023-04-15T09:17:05.302Z,101377.63
2023-04-15T09:19:34.793Z,101385.13
2023-04-15T09:22:25.124Z,101377.13
2023-04-15T09:25:01.393Z,101378.13
2023-04-15T09:27:43.470Z,101389.97
2023-04-15T09:30:24.017Z,101401.28
2023-04-15T09:32:54.585Z,101399.41
2023-04-15T09:35:27.456Z,101405.06
2023-04-15T09:38:10.838Z,101394.41
2023-04-15T09:40:44.302Z,101406.00
2023-04-15T09:43:13.693Z,101405.91
2023-04-15T09:45:50.136Z,101411.72
2023-04-15T09:48:26.859Z,101413.47
2023-04-15T09:50:54.079Z,101415.19
2023-04-15T09:53:23.112Z,101409.84
2023-04-15T09:55:56.638Z,101426.22
2023-04-15T09:58:30.181Z,101422.09
2023-04-15T10:01:01.866Z,101416.34
2023-04-15T10:03:36.890Z,101426.69
2023-04-15T10:06:04.281Z,101424.84
2023-04-15T10:08:33.711Z,101415.34
2023-04-15T10:11:05.179Z,101423.06
2023-04-15T10:13:37.323Z,101432.47
2023-04-15T10:16:12.054Z,101422.81
2023-04-15T10:18:43.347Z,101435.03
2023-04-15T10:21:14.027Z,101434.88
2023-04-15T10:23:41.136Z,101438.25
2023-04-15T10:26:08.278Z,101439.06
2023-04-15T10:28:35.067Z,101425.00
2023-04-15T10:31:02.254Z,101424.75
2023-04-15T10:33:32.243Z,101418.38
2023-04-15T10:36:04.647Z,101441.81
2023-04-15T10:38:36.694Z,101441.44
2023-04-15T10:41:20.786Z,101437.16
2023-04-15T10:43:53.881Z,101418.63
2023-04-15T10:46:45.451Z,101445.50
2023-04-15T10:49:17.214Z,101433.28
2023-04-15T10:51:46.913Z,101455.53
2023-04-15T10:54:14.956Z,101444.06
2023-04-15T10:56:45.412Z,101444.97
2023-04-15T10:59:12.385Z,101440.72
2023-04-15T11:02:05.973Z,101460.13
2023-04-15T11:04:54.896Z,101449.16
2023-04-15T11:07:36.894Z,101466.69
2023-04-15T11:10:27.031Z,101453.25
2023-04-15T11:12:57.542Z,101464.97
2023-04-15T11:15:47.881Z,101344.34
2023-04-15T11:18:25.832Z,101463.38
2023-04-15T11:20:59.928Z,101465.47
2023-04-15T11:23:31.573Z,101467.72
2023-04-15T11:26:00.842Z,101466.91
2023-04-15T11:28:43.207Z,101459.94
2023-04-15T11:31:18.718Z,101437.97
2023-04-15T11:33:54.444Z,101471.81
2023-04-15T11:36:23.900Z,101465.91
2023-04-15T11:38:50.556Z,101472.38
2023-04-15T11:41:24.025Z,101448.44
2023-04-15T11:43:51.443Z,101479.88
2023-04-15T11:46:18.683Z,101481.25
2023-04-15T11:48:47.504Z,101472.75
2023-04-15T11:51:16.707Z,101499.19
2023-04-15T11:53:44.770Z,101499.78
2023-04-15T11:56:21.186Z,101461.47
2023-04-15T11:58:50.861Z,101489.69
2023-04-15T12:01:17.804Z,101475.75
2023-04-15T12:03:49.238Z,101502.50
2023-04-15T12:06:31.811Z,101507.22
2023-04-15T12:09:07.591Z,101514.25
2023-04-15T12:11:46.564Z,101508.06
2023-04-15T12:14:20.528Z,101503.66
2023-04-15T12:16:52.562Z,101508.06
2023-04-15T12:19:29.117Z,101505.47
2023-04-15T12:22:01.697Z,101528.06
2023-04-15T12:24:34.345Z,101509.31
2023-04-15T12:27:16.673Z,101527.81
2023-04-15T12:29:45.967Z,101506.09
2023-04-15T12:32:17.219Z,101538.00
2023-04-15T12:34:58.262Z,101543.72
2023-04-15T12:37:26.150Z,101526.53
2023-04-15T12:39:54.016Z,101488.91
2023-04-15T12:42:20.796Z,101547.22
2023-04-15T12:44:47.382Z,101540.09
2023-04-15T12:47:16.922Z,101557.44
2023-04-15T12:49:46.373Z,101547.72
2023-04-15T12:52:13.618Z,101555.94
2023-04-15T12:54:40.658Z,101543.09
2023-04-15T12:57:07.874Z,101559.63
2023-04-15T12:59:35.507Z,101508.75
2023-04-15T13:02:03.050Z,101564.69
2023-04-15T13:04:33.037Z,101535.13
2023-04-15T13:07:02.723Z,101545.75
2023-04-15T13:09:29.350Z,101578.47
2023-04-15T13:11:57.656Z,101570.06
2023-04-15T13:14:27.212Z,101553.31
2023-04-15T13:16:53.991Z,101572.69
2023-04-15T13:19:20.691Z,101604.22
2023-04-15T13:21:47.304Z,101593.13
2023-04-15T13:24:13.944Z,101580.88
2023-04-15T13:26:40.532Z,101596.53
2023-04-15T13:29:07.349Z,101606.13
2023-04-15T13:31:36.577Z,101601.97
2023-04-15T13:34:03.408Z,101596.91
2023-04-15T13:36:30.731Z,101608.09
2023-04-15T13:38:57.810Z,101615.38
2023-04-15T13:41:24.448Z,101613.75
2023-04-15T13:43:53.405Z,101624.00
2023-04-15T13:46:20.063Z,101617.31
2023-04-15T13:48:46.825Z,101608.84
2023-04-15T13:51:13.430Z,101620.81
2023-04-15T13:53:40.343Z,101621.91
2023-04-15T13:56:08.117Z,101639.25
2023-04-15T13:58:34.816Z,101632.31
2023-04-15T14:01:03.180Z,101634.06
2023-04-15T14:03:30.790Z,101655.97
2023-04-15T14:05:59.974Z,101649.19
2023-04-15T14:08:26.585Z,101660.19
2023-04-15T14:10:53.186Z,101645.13
2023-04-15T14:13:19.836Z,101656.34
2023-04-15T14:15:50.089Z,101667.78
2023-04-15T14:18:16.885Z,101671.00
2023-04-15T14:20:43.428Z,101653.84
2023-04-15T14:23:10.093Z,101668.75
2023-04-15T14:25:39.300Z,101668.84
2023-04-15T14:28:06.271Z,101627.75
2023-04-15T14:30:33.236Z,101678.94
2023-04-15T14:33:00.041Z,101697.31
2023-04-15T14:35:27.415Z,101678.81
2023-04-15T14:37:54.515Z,101684.06
2023-04-15T14:40:23.731Z,101696.97
2023-04-15T14:42:50.368Z,101703.06
2023-04-15T14:45:17.938Z,101692.31
2023-04-15T14:47:44.806Z,101692.19
2023-04-15T14:50:11.699Z,101711.50
2023-04-15T14:52:40.648Z,101701.03
2023-04-15T14:55:13.206Z,101728.16
2023-04-15T14:57:41.342Z,101717.47
2023-04-15T15:00:09.989Z,101702.72
2023-04-15T15:02:42.504Z,101723.78
2023-04-15T15:05:10.653Z,101736.38
2023-04-15T15:07:43.629Z,101748.25
2023-04-15T15:10:12.467Z,101737.75
2023-04-15T15:12:39.012Z,101733.28
2023-04-15T15:15:15.808Z,101749.59
2023-04-15T15:17:52.173Z,101740.53
2023-04-15T15:20:19.368Z,101743.41
2023-04-15T15:22:46.297Z,101747.59
2023-04-15T15:25:12.883Z,101744.72
2023-04-15T15:27:42.168Z,101760.31
2023-04-15T15:30:09.800Z,101769.66
2023-04-15T15:32:36.441Z,101769.53
2023-04-15T15:35:05.646Z,101752.06
2023-04-15T15:37:32.439Z,101766.66
2023-04-15T15:40:01.934Z,101777.00
2023-04-15T15:42:31.954Z,101782.78
2023-04-15T15:44:58.753Z,101786.81
2023-04-15T15:47:26.953Z,101696.50
2023-04-15T15:49:55.184Z,101790.25
2023-04-15T15:52:29.635Z,101797.31
2023-04-15T15:54:56.615Z,101798.72
2023-04-15T15:57:25.688Z,101810.41
2023-04-15T16:00:09.876Z,101820.50
2023-04-15T16:05:21.386Z,101826.94
2023-04-15T16:07:58.203Z,101831.13
2023-04-15T16:10:33.373Z,101836.69
2023-04-15T16:13:17.467Z,101826.25
2023-04-15T16:15:46.290Z,101839.22
2023-04-15T16:18:15.606Z,101857.78
2023-04-15T16:20:43.896Z,101839.94
2023-04-15T16:23:17.398Z,101855.75
2023-04-15T16:25:55.091Z,101855.84
2023-04-15T16:31:06.175Z,101866.19
2023-04-15T16:33:36.390Z,101873.50
2023-04-15T16:36:04.526Z,101873.81
2023-04-15T16:38:31.775Z,101848.66
2023-04-15T16:41:01.052Z,101878.91
2023-04-15T16:43:28.347Z,101895.88
2023-04-15T16:45:55.062Z,101897.22
2023-04-15T16:48:21.748Z,101905.94
2023-04-15T16:50:49.311Z,101895.13
2023-04-15T16:53:16.271Z,101904.94
2023-04-15T16:55:43.062Z,101897.41
2023-04-15T16:58:09.674Z,101925.56
2023-04-15T17:00:38.594Z,101914.16
2023-04-15T17:03:07.838Z,101904.88
2023-04-15T17:05:34.577Z,101910.38
2023-04-15T17:08:01.302Z,101911.34
2023-04-15T17:10:31.328Z,101903.06
2023-04-15T17:12:59.776Z,101889.66
2023-04-15T17:15:27.223Z,101912.63
2023-04-15T17:17:54.323Z,101898.34
2023-04-15T17:20:21.136Z,101917.59
2023-04-15T17:22:50.670Z,101922.41
2023-04-15T17:25:17.733Z,101936.44
2023-04-15T17:27:44.300Z,101926.16
2023-04-15T17:30:13.432Z,101928.41
2023-04-15T17:32:40.365Z,101928.00
2023-04-15T17:35:07.738Z,101930.97
2023-04-15T17:37:34.937Z,101922.00
2023-04-15T17:40:02.461Z,101941.38
2023-04-15T17:42:31.459Z,101945.38
2023-04-15T17:44:58.025Z,101938.16
2023-04-15T17:47:24.899Z,101945.63
2023-04-15T17:49:51.584Z,101896.94
2023-04-15T17:52:18.154Z,101954.53
2023-04-15T17:54:46.254Z,101955.78
2023-04-15T17:57:15.150Z,101952.66
2023-04-15T17:59:47.353Z,101937.84
2023-04-15T18:02:15.034Z,101947.56
2023-04-15T18:04:41.835Z,101947.41
2023-04-15T18:07:11.142Z,101972.09
2023-04-15T18:09:40.114Z,101953.59
2023-04-15T18:12:09.240Z,101982.22
2023-04-15T18:14:38.592Z,101952.72
2023-04-15T18:17:05.367Z,101970.19
2023-04-15T18:19:32.217Z,101964.38
2023-04-15T18:22:00.418Z,101915.06
2023-04-15T18:24:27.483Z,101975.28
2023-04-15T18:26:54.052Z,101981.94
2023-04-15T18:29:20.767Z,101973.13
2023-04-15T18:31:47.567Z,101991.88
2023-04-15T18:34:17.295Z,101979.69
2023-04-15T18:36:46.209Z,101990.34
2023-04-15T18:39:15.631Z,101999.19
2023-04-15T18:41:44.543Z,102009.19
2023-04-15T18:44:11.204Z,102003.47
2023-04-15T18:46:40.321Z,101996.53
2023-04-15T18:49:11.766Z,101991.78
2023-04-15T18:51:38.390Z,102006.25
2023-04-15T18:54:04.975Z,102009.88
2023-04-15T18:56:31.756Z,102019.03
2023-04-15T18:59:19.068Z,102028.84
2023-04-15T19:01:44.868Z,102035.03
2023-04-15T19:04:11.797Z,102039.31
2023-04-15T19:06:38.565Z,102040.03
2023-04-15T19:09:05.593Z,102052.75
2023-04-15T19:11:32.509Z,102053.09
2023-04-15T19:13:59.047Z,102039.06
2023-04-15T19:16:25.594Z,102044.91
2023-04-15T19:18:54.468Z,102057.06
2023-04-15T19:21:23.366Z,102064.50
2023-04-15T19:23:52.231Z,102064.94
2023-04-15T19:26:18.829Z,102033.06
2023-04-15T19:28:47.614Z,102055.56
2023-04-15T19:31:16.829Z,102071.69
2023-04-15T19:33:46.527Z,102065.19
2023-04-15T19:36:13.188Z,102083.69
2023-04-15T19:38:39.758Z,102073.03
2023-04-15T19:41:10.463Z,102079.00
2023-04-15T19:43:37.085Z,102057.13
2023-04-15T19:46:04.119Z,102081.72
2023-04-15T19:48:33.238Z,102085.19
2023-04-15T19:51:00.602Z,102098.06
2023-04-15T19:53:27.221Z,102096.31
2023-04-15T19:55:53.772Z,102092.00
2023-04-15T19:58:20.385Z,102101.69
2023-04-15T20:00:47.047Z,102100.81
2023-04-15T20:03:13.934Z,102101.03
2023-04-15T20:05:42.664Z,102078.75
2023-04-15T20:08:09.393Z,102086.56
2023-04-15T20:10:37.452Z,102088.66
2023-04-15T20:13:04.446Z,102108.78
2023-04-15T20:15:31.225Z,102101.84
2023-04-15T20:17:58.021Z,102105.75
2023-04-15T20:20:24.810Z,102103.03
2023-04-15T20:22:56.121Z,102096.81
2023-04-15T20:25:22.726Z,102076.91
2023-04-15T20:27:51.816Z,102108.13
2023-04-15T20:30:18.470Z,102104.44
2023-04-15T20:32:45.092Z,102096.94
2023-04-15T20:35:11.833Z,102094.97
2023-04-15T20:37:38.468Z,102093.91
2023-04-15T20:40:08.411Z,102117.19
2023-04-15T20:42:35.211Z,102092.69
2023-04-15T20:45:02.574Z,102107.50
2023-04-15T20:47:29.712Z,102096.41
2023-04-15T20:49:56.754Z,102108.78
2023-04-15T20:52:26.532Z,102064.81
2023-04-15T20:54:55.797Z,102095.50
2023-04-15T20:57:24.633Z,102129.81
2023-04-15T20:59:51.536Z,102113.38
2023-04-15T21:02:18.544Z,102090.75
2023-04-15T21:04:47.719Z,102123.31
2023-04-15T21:07:14.473Z,102123.41
2023-04-15T21:09:43.334Z,102127.31
2023-04-15T21:12:11.143Z,102133.50
2023-04-15T21:14:38.991Z,102131.88
2023-04-15T21:17:11.040Z,102124.69
2023-04-15T21:19:38.379Z,102107.72
2023-04-15T21:22:05.134Z,102122.50
2023-04-15T21:24:34.459Z,102121.44
2023-04-15T21:27:02.130Z,102130.66
2023-04-15T21:29:31.392Z,102139.41
2023-04-15T21:31:58.381Z,102139.41
2023-04-15T21:34:25.177Z,102139.41
2023-04-15T21:36:52.755Z,102146.78
2023-04-15T21:39:19.923Z,102134.50
2023-04-15T21:41:46.796Z,102118.81
2023-04-15T21:44:15.901Z,102139.94
2023-04-15T21:46:45.672Z,102122.38
2023-04-15T21:49:13.418Z,102139.03
2023-04-15T21:51:40.588Z,102131.22
2023-04-15T21:54:08.270Z,102147.00
2023-04-15T21:56:35.406Z,102114.09
2023-04-15T21:59:02.274Z,102149.19
2023-04-15T22:01:29.229Z,102136.09
2023-04-15T22:03:56.355Z,102139.91
2023-04-15T22:06:23.329Z,102163.44
2023-04-15T22:09:10.673Z,102159.09
2023-04-15T22:11:37.306Z,102161.25
2023-04-15T22:14:05.495Z,102140.78
2023-04-15T22:16:32.394Z,102146.97
2023-04-15T22:18:59.725Z,102144.03
2023-04-15T22:21:26.901Z,102155.69
2023-04-15T22:24:38.222Z,102155.59
2023-04-15T22:26:41.063Z,102165.16
2023-04-15T22:29:07.826Z,102142.72
2023-04-15T22:31:36.897Z,102178.00
2023-04-15T22:34:06.159Z,102177.16
2023-04-15T22:36:35.662Z,102177.16
2023-04-15T22:39:02.489Z,102164.91
2023-04-15T22:41:29.278Z,102167.84
2023-04-15T22:43:58.493Z,102155.22
2023-04-15T22:46:27.650Z,102188.22
2023-04-15T22:48:57.012Z,102160.09
2023-04-15T22:51:29.528Z,102188.34
2023-04-15T22:53:56.592Z,102171.78
2023-04-15T22:56:23.747Z,102140.66
2023-04-15T22:58:50.899Z,102182.31
2023-04-15T23:01:21.469Z,102194.75
2023-04-15T23:03:56.973Z,102205.53
2023-04-15T23:06:30.207Z,102202.91
2023-04-15T23:08:57.073Z,102202.34
2023-04-15T23:11:24.046Z,102197.97
2023-04-15T23:13:50.894Z,102200.91
2023-04-15T23:16:17.744Z,102206.13
2023-04-15T23:18:46.976Z,102175.09
2023-04-15T23:21:14.057Z,102196.06
2023-04-15T23:23:40.980Z,102203.97
2023-04-15T23:26:08.134Z,102206.78
2023-04-15T23:28:34.888Z,102194.03
2023-04-15T23:31:01.626Z,102206.13
2023-04-15T23:33:28.406Z,102193.84
2023-04-15T23:35:56.243Z,102213.13
2023-04-15T23:38:23.112Z,102169.38
2023-04-15T23:40:51.343Z,102173.88
2023-04-15T23:43:20.544Z,102212.81
2023-04-15T23:45:49.766Z,102215.75
2023-04-15T23:48:16.438Z,102211.38
2023-04-15T23:50:43.586Z,102197.97
2023-04-15T23:53:10.362Z,102218.16
2023-04-15T23:55:39.530Z,102220.41
2023-04-15T23:58:06.433Z,102225.31
